createdAt,value
2023-01-23T00:05:13.211Z,27.08
2023-01-23T00:07:41.879Z,22.27
2023-01-23T00:10:09.256Z,21.77
2023-01-23T00:12:35.782Z,20.52
2023-01-23T00:15:39.723Z,21.20
2023-01-23T00:21:53.815Z,18.55
2023-01-23T00:24:20.540Z,19.23
2023-01-23T00:27:07.470Z,19.13
2023-01-23T00:29:34.065Z,18.88
2023-01-23T00:32:00.656Z,20.52
2023-01-23T00:34:27.219Z,19.60
2023-01-23T00:40:49.622Z,20.48
2023-01-23T00:43:16.194Z,20.27
2023-01-23T00:45:43.347Z,19.35
2023-01-23T00:48:14.979Z,21.30
2023-01-23T00:50:41.532Z,19.48
2023-01-23T00:53:19.090Z,21.15
2023-01-23T00:58:54.088Z,18.70
2023-01-23T01:12:21.999Z,20.15
2023-01-23T01:19:02.771Z,19.50
2023-01-23T01:21:30.237Z,19.33
2023-01-23T01:28:29.689Z,19.98
2023-01-23T01:30:57.483Z,18.27
2023-01-23T01:37:10.860Z,18.50
2023-01-23T01:39:37.349Z,19.00
2023-01-23T01:45:55.719Z,19.33
2023-01-23T01:48:26.976Z,20.75
2023-01-23T01:54:52.691Z,19.52
2023-01-23T02:01:49.897Z,18.75
2023-01-23T02:08:28.628Z,17.02
2023-01-23T02:10:55.256Z,17.27
2023-01-23T02:17:08.817Z,18.50
2023-01-23T02:19:50.620Z,19.42
2023-01-23T02:34:43.480Z,19.92
2023-01-23T02:43:59.312Z,19.42
2023-01-23T02:51:07.807Z,19.27
2023-01-23T02:53:34.374Z,14.20
2023-01-23T03:00:24.722Z,19.48
2023-01-23T03:10:40.840Z,20.02
2023-01-23T03:13:09.197Z,19.83
2023-01-23T03:19:53.640Z,19.17
2023-01-23T03:22:20.195Z,19.15
2023-01-23T03:29:10.664Z,20.42
2023-01-23T03:31:37.289Z,20.42
2023-01-23T03:37:52.217Z,19.10
2023-01-23T03:40:40.075Z,18.35
2023-01-23T03:46:53.759Z,21.65
2023-01-23T03:49:20.675Z,20.65
2023-01-23T03:55:27.429Z,20.52
2023-01-23T03:57:53.961Z,21.83
2023-01-23T04:04:12.608Z,18.48
2023-01-23T04:06:39.127Z,18.90
2023-01-23T04:13:19.646Z,19.17
2023-01-23T04:15:46.299Z,18.80
2023-01-23T04:18:12.876Z,19.52
2023-01-23T04:20:39.464Z,19.38
2023-01-23T04:42:53.473Z,18.88
2023-01-23T04:49:06.801Z,18.27
2023-01-23T04:51:33.397Z,18.95
2023-01-23T04:57:40.549Z,19.42
2023-01-23T05:00:09.227Z,18.45
2023-01-23T05:06:23.007Z,18.70
2023-01-23T05:08:54.312Z,18.60
2023-01-23T05:15:13.105Z,21.48
2023-01-23T05:25:11.805Z,20.25
2023-01-23T05:31:40.322Z,21.67
2023-01-23T05:34:07.102Z,22.80
2023-01-23T05:40:17.916Z,22.60
2023-01-23T05:42:47.997Z,22.13
2023-01-23T05:49:14.087Z,21.75
2023-01-23T05:51:48.028Z,23.23
2023-01-23T05:58:01.848Z,22.00
2023-01-23T06:00:37.109Z,21.25
2023-01-23T06:07:07.589Z,22.90
2023-01-23T06:09:34.258Z,21.70
2023-01-23T06:19:37.161Z,21.30
2023-01-23T06:26:04.320Z,22.95
2023-01-23T06:35:57.694Z,21.77
2023-01-23T06:42:56.543Z,22.08
2023-01-23T06:45:23.124Z,22.00
2023-01-23T06:51:38.949Z,21.77
2023-01-23T06:54:05.713Z,21.55
2023-01-23T06:56:40.680Z,23.00
2023-01-23T07:57:38.805Z,26.30
2023-01-23T08:00:06.029Z,25.70
2023-01-23T08:06:20.166Z,26.83
2023-01-23T08:16:53.001Z,24.50
2023-01-23T08:19:19.897Z,25.20
2023-01-23T08:25:26.985Z,24.67
2023-01-23T08:27:53.464Z,27.52
2023-01-23T08:34:06.585Z,24.58
2023-01-23T08:36:33.235Z,23.80
2023-01-23T08:42:56.564Z,23.63
2023-01-23T08:45:51.729Z,20.60
2023-01-23T09:01:56.735Z,21.42
2023-01-23T09:04:23.270Z,25.67
2023-01-23T09:06:49.796Z,21.75
2023-01-23T09:09:16.331Z,21.08
2023-01-23T09:11:42.894Z,20.02
2023-01-23T09:14:09.438Z,17.38
2023-01-23T09:16:36.037Z,19.40
2023-01-23T09:19:02.584Z,19.70
2023-01-23T09:21:29.075Z,20.95
2023-01-23T09:23:56.953Z,16.67
2023-01-23T09:26:29.218Z,20.92
2023-01-23T09:28:55.789Z,17.38
2023-01-23T09:31:22.391Z,16.73
2023-01-23T09:33:49.175Z,16.20
2023-01-23T09:36:15.694Z,17.38
2023-01-23T09:38:42.271Z,16.33
2023-01-23T09:41:23.475Z,16.27
2023-01-23T09:43:58.916Z,17.45
2023-01-23T09:46:41.786Z,17.15
2023-01-23T09:49:11.016Z,17.13
2023-01-23T09:51:37.534Z,16.55
2023-01-23T09:54:47.085Z,17.10
2023-01-23T09:57:22.072Z,16.02
2023-01-23T10:00:00.622Z,17.35
2023-01-23T10:02:27.822Z,18.33
2023-01-23T10:04:56.695Z,18.55
2023-01-23T10:07:32.302Z,16.92
2023-01-23T10:10:39.263Z,20.88
2023-01-23T10:13:09.335Z,18.60
2023-01-23T10:18:02.219Z,20.52
2023-01-23T10:20:55.532Z,20.27
2023-01-23T10:23:45.762Z,20.08
2023-01-23T10:26:20.870Z,17.33
2023-01-23T10:28:47.983Z,20.75
2023-01-23T10:31:25.131Z,17.23
2023-01-23T10:34:04.919Z,18.13
2023-01-23T10:39:28.039Z,20.02
2023-01-23T10:42:02.029Z,18.95
2023-01-23T10:44:29.176Z,21.50
2023-01-23T10:47:04.442Z,18.23
2023-01-23T10:49:43.190Z,20.30
2023-01-23T10:52:46.163Z,21.55
2023-01-23T10:55:18.905Z,15.75
2023-01-23T10:57:48.924Z,19.90
2023-01-23T11:00:33.322Z,16.83
2023-01-23T11:03:21.367Z,17.65
2023-01-23T11:05:53.721Z,17.63
2023-01-23T11:08:30.874Z,21.23
2023-01-23T11:11:15.468Z,18.38
2023-01-23T11:13:47.146Z,18.95
2023-01-23T11:16:23.709Z,17.00
2023-01-23T11:18:55.993Z,18.02
2023-01-23T11:36:54.297Z,17.02
2023-01-23T12:16:08.415Z,15.75
2023-01-23T12:27:27.963Z,16.73
2023-01-23T12:45:30.374Z,16.05
2023-01-23T12:56:18.108Z,17.55
2023-01-23T12:58:53.700Z,16.73
2023-01-23T13:09:35.349Z,16.92
2023-01-23T13:22:45.773Z,16.13
2023-01-23T13:29:02.435Z,18.77
2023-01-23T14:31:20.910Z,24.02
2023-01-23T14:33:47.615Z,26.95
2023-01-23T14:36:19.338Z,21.80
2023-01-23T14:38:47.369Z,24.08
2023-01-23T14:41:14.357Z,20.50
2023-01-23T14:43:42.681Z,25.05
2023-01-23T14:46:19.131Z,25.98
2023-01-23T14:48:51.752Z,22.63
2023-01-23T14:51:24.338Z,25.05
2023-01-23T14:53:54.751Z,35.90
2023-01-23T14:56:26.339Z,31.30
2023-01-23T14:58:55.089Z,20.50
2023-01-23T15:01:21.789Z,24.45
2023-01-23T15:04:03.350Z,20.00
2023-01-23T15:06:32.282Z,23.77
2023-01-23T15:09:14.630Z,23.13
2023-01-23T15:11:41.667Z,26.13
2023-01-23T15:14:25.580Z,21.10
2023-01-23T15:17:00.149Z,26.75
2023-01-23T15:19:26.868Z,24.77
2023-01-23T15:22:08.354Z,28.17
2023-01-23T15:24:35.062Z,20.02
2023-01-23T15:27:04.899Z,25.92
2023-01-23T15:29:32.700Z,25.40
2023-01-23T15:31:59.970Z,25.90
2023-01-23T15:34:33.071Z,21.55
2023-01-23T15:37:08.334Z,23.85
2023-01-23T15:39:50.600Z,20.85
2023-01-23T15:42:17.056Z,24.30
2023-01-23T15:44:43.867Z,19.30
2023-01-23T15:47:11.048Z,26.85
2023-01-23T15:49:39.915Z,22.73
2023-01-23T15:52:18.526Z,24.73
2023-01-23T15:54:45.891Z,19.80
2023-01-23T15:57:13.222Z,24.88
2023-01-23T15:59:40.622Z,24.38
2023-01-23T16:02:12.908Z,23.05
2023-01-23T16:04:45.766Z,26.67
2023-01-23T16:07:29.481Z,26.55
2023-01-23T16:09:56.670Z,27.45
2023-01-23T16:12:28.114Z,21.80
2023-01-23T16:14:54.981Z,27.05
2023-01-23T16:17:21.664Z,25.60
2023-01-23T16:19:48.200Z,24.70
2023-01-23T16:22:22.637Z,25.92
2023-01-23T16:24:49.834Z,25.88
2023-01-23T16:27:18.839Z,23.75
2023-01-23T16:29:46.242Z,25.63
2023-01-23T16:32:12.857Z,25.45
2023-01-23T16:34:39.471Z,25.00
2023-01-23T16:37:12.027Z,20.08
2023-01-23T16:39:41.587Z,22.45
2023-01-23T16:42:27.791Z,20.60
2023-01-23T16:44:54.364Z,25.98
2023-01-23T16:47:20.888Z,23.92
2023-01-23T16:49:52.542Z,25.10
2023-01-23T16:52:20.699Z,22.35
2023-01-23T16:54:47.403Z,23.38
2023-01-23T16:57:20.207Z,22.63
2023-01-23T16:59:49.186Z,23.65
2023-01-23T17:02:23.094Z,20.75
2023-01-23T17:04:50.024Z,22.92
2023-01-23T17:07:18.059Z,23.73
2023-01-23T17:09:45.772Z,24.40
2023-01-23T17:12:18.571Z,25.05
2023-01-23T17:14:46.530Z,24.33
2023-01-23T17:17:24.925Z,25.33
2023-01-23T17:19:52.397Z,27.35
2023-01-23T17:22:23.499Z,27.77
2023-01-23T17:24:50.184Z,23.90
2023-01-23T17:27:16.837Z,24.05
2023-01-23T17:29:43.391Z,23.20
2023-01-23T17:32:31.063Z,23.23
2023-01-23T17:35:01.720Z,23.40
2023-01-23T17:37:29.598Z,21.20
2023-01-23T17:39:56.118Z,25.35
2023-01-23T17:42:22.727Z,25.38
2023-01-23T17:44:49.436Z,24.38
2023-01-23T17:47:16.460Z,24.23
2023-01-23T17:49:49.688Z,23.98
2023-01-23T17:52:16.220Z,24.73
2023-01-23T17:54:42.813Z,20.45
2023-01-23T17:57:09.355Z,25.42
2023-01-23T17:59:35.855Z,24.42
2023-01-23T18:02:02.504Z,24.05
2023-01-23T18:04:29.059Z,24.20
2023-01-23T18:06:55.583Z,24.90
2023-01-23T18:09:22.107Z,22.45
2023-01-23T18:11:55.099Z,23.83
2023-01-23T18:14:44.775Z,23.77
2023-01-23T18:17:41.571Z,20.25
2023-01-23T18:20:22.830Z,24.08
2023-01-23T18:22:50.049Z,24.85
2023-01-23T18:25:18.902Z,22.60
2023-01-23T18:27:54.273Z,19.73
2023-01-23T18:30:41.915Z,25.05
2023-01-23T18:33:23.591Z,26.35
2023-01-23T18:36:21.099Z,24.88
2023-01-23T18:39:25.717Z,24.73
2023-01-23T18:42:28.048Z,24.15
2023-01-23T18:45:05.288Z,24.45
2023-01-23T18:47:32.051Z,24.83
2023-01-23T18:49:58.834Z,25.00
2023-01-23T18:52:45.931Z,24.63
2023-01-23T18:55:24.139Z,23.10
2023-01-23T18:58:06.705Z,26.33
2023-01-23T19:00:35.895Z,26.13
2023-01-23T19:03:12.345Z,20.38
2023-01-23T19:05:39.115Z,23.55
2023-01-23T19:08:05.884Z,24.23
2023-01-23T19:10:48.678Z,24.08
2023-01-23T19:13:33.460Z,23.90
2023-01-23T19:16:24.256Z,23.80
2023-01-23T19:19:14.659Z,24.45
2023-01-23T19:21:42.463Z,23.65
2023-01-23T19:24:11.125Z,24.55
2023-01-23T19:26:40.108Z,24.02
2023-01-23T19:29:21.145Z,23.13
2023-01-23T19:32:04.047Z,22.27
2023-01-23T19:34:33.377Z,23.50
2023-01-23T19:36:59.908Z,23.63
2023-01-23T19:39:26.442Z,22.70
2023-01-23T19:41:53.410Z,23.38
2023-01-23T19:44:24.145Z,22.50
2023-01-23T19:46:51.338Z,22.90
2023-01-23T19:49:17.904Z,23.90
2023-01-23T19:51:44.460Z,23.25
2023-01-23T19:54:13.256Z,23.83
2023-01-23T19:56:40.087Z,22.45
2023-01-23T19:59:07.070Z,23.70
2023-01-23T20:01:37.045Z,20.88
2023-01-23T20:04:05.286Z,17.75
2023-01-23T20:06:34.293Z,25.10
2023-01-23T20:09:01.003Z,19.60
2023-01-23T20:11:27.523Z,24.77
2023-01-23T20:13:54.027Z,19.27
2023-01-23T20:16:25.016Z,22.15
2023-01-23T20:18:53.471Z,23.27
2023-01-23T20:21:25.778Z,20.67
2023-01-23T20:23:52.832Z,23.08
2023-01-23T20:26:20.840Z,22.70
2023-01-23T20:28:53.321Z,22.92
2023-01-23T20:31:21.705Z,21.63
2023-01-23T20:33:48.380Z,22.05
2023-01-23T20:36:15.967Z,19.65
2023-01-23T20:38:43.203Z,21.67
2023-01-23T20:41:15.448Z,21.67
2023-01-23T20:43:44.850Z,25.27
2023-01-23T20:46:12.362Z,19.15
2023-01-23T20:48:41.569Z,23.15
2023-01-23T20:51:09.770Z,17.60
2023-01-23T20:53:39.513Z,22.23
2023-01-23T20:56:09.434Z,20.83
2023-01-23T20:58:56.648Z,20.00
2023-01-23T21:01:25.168Z,22.42
2023-01-23T21:03:51.736Z,22.25
2023-01-23T21:06:19.324Z,20.13
2023-01-23T21:08:46.480Z,25.60
2023-01-23T21:11:23.934Z,22.52
2023-01-23T21:13:53.417Z,24.70
2023-01-23T21:16:20.172Z,20.63
2023-01-23T21:18:47.684Z,22.38
2023-01-23T21:21:17.194Z,25.73
2023-01-23T21:23:46.832Z,20.17
2023-01-23T21:26:13.429Z,20.45
2023-01-23T21:28:39.983Z,23.90
2023-01-23T21:31:14.735Z,24.58
2023-01-23T21:33:44.162Z,23.88
2023-01-23T21:36:12.946Z,21.35
2023-01-23T21:38:39.879Z,27.63
2023-01-23T21:41:06.419Z,20.25
2023-01-23T21:43:33.847Z,24.73
2023-01-23T21:46:00.503Z,25.90
2023-01-23T21:48:31.124Z,24.90
2023-01-23T21:51:17.004Z,25.58
2023-01-23T21:53:45.798Z,25.27
2023-01-23T21:56:14.893Z,25.95
2023-01-23T21:58:44.290Z,21.20
2023-01-23T22:01:32.163Z,20.40
2023-01-23T22:04:05.655Z,26.45
2023-01-23T22:06:34.034Z,25.27
2023-01-23T22:09:00.659Z,24.08
2023-01-23T22:11:27.463Z,25.35
2023-01-23T22:13:55.094Z,26.00
2023-01-23T22:16:31.946Z,24.38
2023-01-23T22:19:07.247Z,27.00
2023-01-23T22:21:34.267Z,28.42
2023-01-23T22:24:01.406Z,23.10
2023-01-23T22:26:28.072Z,27.55
2023-01-23T22:28:54.613Z,26.75
2023-01-23T22:31:21.164Z,22.98
2023-01-23T22:33:48.358Z,25.85
2023-01-23T22:36:19.690Z,25.75
2023-01-23T22:38:54.340Z,25.90
2023-01-23T22:41:21.924Z,26.48
2023-01-23T22:43:53.240Z,26.73
2023-01-23T22:46:19.742Z,24.67
2023-01-23T22:48:46.703Z,21.85
2023-01-23T22:51:16.289Z,24.38
2023-01-23T22:53:43.053Z,20.75
2023-01-23T22:56:10.129Z,24.10
2023-01-23T22:58:37.011Z,25.30
2023-01-23T23:01:04.276Z,20.90
2023-01-23T23:03:33.128Z,25.40
2023-01-23T23:06:02.787Z,24.15
2023-01-23T23:08:29.833Z,22.70
2023-01-23T23:11:08.331Z,22.35
2023-01-23T23:13:36.871Z,23.80
2023-01-23T23:16:09.040Z,19.88
2023-01-23T23:18:38.270Z,20.80
2023-01-23T23:21:08.850Z,21.58
2023-01-23T23:23:35.751Z,19.45
2023-01-23T23:26:02.533Z,24.77
2023-01-23T23:28:30.380Z,20.70
2023-01-23T23:30:57.301Z,26.25
2023-01-23T23:33:24.027Z,20.67
2023-01-23T23:35:50.563Z,24.85
2023-01-23T23:38:17.156Z,23.27
2023-01-23T23:40:43.711Z,21.10
2023-01-23T23:43:10.274Z,22.75
2023-01-23T23:45:36.878Z,22.70
2023-01-23T23:48:03.716Z,24.92
2023-01-23T23:50:32.283Z,21.10
2023-01-23T23:52:59.451Z,25.48
2023-01-23T23:55:25.997Z,22.90
2023-01-23T23:57:52.490Z,25.77
